Terminal Aerodrome Forecast
Issued by NWS Twin Cities, MN

Home | Current Version | Previous Version | Text Only | Print | Product List | Glossary Off
Versions: 1 2 3 4 5 6 7 8 9 10 11 12 13 14 15 16

000
FTUS43 KMPX 181736
TAFEAU
TAF
KEAU 181736Z 1818/1918 14005KT P6SM -RA SCT050 OVC100
     FM182300 12006KT P6SM OVC050
     FM190300 12005KT P6SM OVC030=

USA.gov is the U.S. government's official web portal to all federal, state and local government web resources and services.